Time;durP1;ratioP1;P1;durP2;ratioP2;P2;SDS_P1;SDS_P2;PMS_P1;PMS_P2;Temp;Humidity;BMP_temperature;BMP_pressure;BME280_temperature;BME280_humidity;BME280_pressure;Samples;Min_cycle;Max_cycle;Signal;HPM_P1;HPM_P2
2022/09/26 00:00:34;;;;;;;16.25;8.50;;;435.50;2355.20;;;;;;5111967;28;20034;-72
2022/09/26 00:03:00;;;;;;;12.30;8.25;;;435.50;2355.20;;;;;;5111839;28;20487;-72
2022/09/26 00:05:26;;;;;;;11.48;7.65;;;435.50;2355.20;;;;;;5111987;28;20020;-72
2022/09/26 00:07:52;;;;;;;11.40;7.40;;;435.50;2355.20;;;;;;5111777;28;20023;-72
2022/09/26 00:10:17;;;;;;;13.95;7.25;;;435.50;2355.20;;;;;;5113179;28;20402;-72
2022/09/26 00:12:44;;;;;;;11.63;7.00;;;435.60;2355.20;;;;;;5129392;27;20045;-76
2022/09/26 00:15:10;;;;;;;9.88;6.82;;;435.60;2355.20;;;;;;5130192;27;20019;-72
2022/09/26 00:17:36;;;;;;;9.98;6.78;;;435.60;2355.20;;;;;;5115456;28;20015;-73
2022/09/26 00:20:03;;;;;;;11.93;7.10;;;435.60;2355.20;;;;;;5118799;27;20064;-76
2022/09/26 00:22:28;;;;;;;9.45;7.38;;;435.60;2355.20;;;;;;5126029;27;20109;-72
2022/09/26 00:24:54;;;;;;;10.90;6.78;;;435.60;2355.20;;;;;;5115006;28;20468;-72
2022/09/26 00:27:21;;;;;;;11.85;7.53;;;435.70;2355.20;;;;;;5115462;28;20068;-73
2022/09/26 00:29:47;;;;;;;12.05;7.45;;;435.80;2355.20;;;;;;5114913;28;20064;-72
2022/09/26 00:32:12;;;;;;;12.85;7.15;;;435.70;2355.20;;;;;;5115266;28;20046;-76
2022/09/26 00:34:38;;;;;;;9.75;6.72;;;435.70;2355.20;;;;;;5114956;28;20532;-73
2022/09/26 00:37:04;;;;;;;11.38;7.38;;;435.60;2355.20;;;;;;5114796;28;20027;-72
2022/09/26 00:39:30;;;;;;;11.88;7.45;;;435.60;2355.20;;;;;;5114792;28;20030;-72
2022/09/26 00:41:56;;;;;;;9.55;7.35;;;435.60;2355.20;;;;;;5114732;28;20028;-73
2022/09/26 00:44:30;;;;;;;14.38;6.78;;;435.60;2355.20;;;;;;5115060;28;20020;-77
2022/09/26 00:46:56;;;;;;;12.60;7.47;;;435.60;2355.20;;;;;;5129129;27;20023;-73
2022/09/26 00:49:32;;;;;;;20.77;6.68;;;435.50;2355.20;;;;;;5122273;27;20026;-72
2022/09/26 00:52:05;;;;;;;;;;;435.50;2355.20;;;;;;5135602;27;20027;-75
2022/09/26 00:54:33;;;;;;;10.30;7.30;;;435.50;2355.20;;;;;;5127582;27;19990;-72
2022/09/26 00:57:07;;;;;;;15.27;7.88;;;435.40;2355.20;;;;;;5114748;28;20077;-73
2022/09/26 00:59:37;;;;;;;12.38;8.20;;;435.30;2355.20;;;;;;5114445;28;20027;-73
2022/09/26 01:02:03;;;;;;;10.57;7.78;;;435.40;2355.20;;;;;;5114596;28;20018;-73
2022/09/26 01:04:33;;;;;;;12.20;7.22;;;435.40;2355.20;;;;;;5114274;28;20035;-73
2022/09/26 01:07:02;;;;;;;12.77;7.82;;;435.40;2355.20;;;;;;5114307;28;20019;-72
2022/09/26 01:09:30;;;;;;;11.55;8.23;;;435.40;2355.20;;;;;;5114077;28;20023;-72
2022/09/26 01:11:58;;;;;;;14.85;8.48;;;435.40;2355.20;;;;;;5120956;27;20123;-72
2022/09/26 01:14:26;;;;;;;14.63;8.57;;;435.30;2355.20;;;;;;5121148;27;20040;-73
2022/09/26 01:16:53;;;;;;;11.80;8.10;;;435.30;2355.20;;;;;;5119068;27;20102;-75
2022/09/26 01:19:21;;;;;;;13.32;7.50;;;435.30;2355.20;;;;;;5123475;27;20042;-75
2022/09/26 01:22:12;;;;;;;13.10;8.13;;;435.20;2355.20;;;;;;5116517;27;20023;-76
2022/09/26 01:24:40;;;;;;;14.23;7.28;;;435.20;2355.20;;;;;;5113149;28;20027;-75
2022/09/26 01:27:34;;;;;;;15.15;8.90;;;435.20;2355.20;;;;;;5121868;27;20014;-71
2022/09/26 01:30:02;;;;;;;18.42;9.00;;;435.20;2355.20;;;;;;5124085;27;20032;-73
2022/09/26 01:32:49;;;;;;;12.88;8.73;;;435.20;2355.20;;;;;;5119441;27;20443;-74
2022/09/26 01:35:38;;;;;;;13.40;8.10;;;435.20;2355.20;;;;;;5111392;28;20055;-72
2022/09/26 01:38:23;;;;;;;11.40;8.68;;;410.50;2355.20;;;;;;5115701;27;20392;-73
2022/09/26 01:40:58;;;;;;;13.10;8.50;;;435.20;2355.20;;;;;;5113723;27;20103;-76
2022/09/26 01:43:41;;;;;;;15.15;8.27;;;435.20;2355.20;;;;;;5100490;28;20024;-77
2022/09/26 01:46:33;;;;;;;12.60;8.00;;;435.20;2355.20;;;;;;5124386;27;20473;-75
2022/09/26 01:49:15;;;;;;;13.45;8.32;;;435.20;2355.20;;;;;;5124922;27;20496;-72
2022/09/26 01:51:48;;;;;;;13.10;8.60;;;435.20;2355.20;;;;;;5116799;27;20028;-72
2022/09/26 01:54:25;;;;;;;13.50;9.32;;;435.20;2355.20;;;;;;5113234;27;20019;-75
2022/09/26 01:56:56;;;;;;;14.05;8.85;;;410.50;2355.20;;;;;;5118974;27;20022;-73
2022/09/26 01:59:30;;;;;;;18.10;9.23;;;410.50;2355.20;;;;;;5120979;27;20016;-76
2022/09/26 02:02:04;;;;;;;13.80;8.75;;;410.50;2355.20;;;;;;5119399;27;20460;-74
2022/09/26 02:04:36;;;;;;;18.58;8.60;;;410.50;2355.20;;;;;;5119167;27;20047;-73
2022/09/26 02:07:11;;;;;;;12.77;8.50;;;410.50;2355.20;;;;;;5116445;27;20370;-77
2022/09/26 02:10:02;;;;;;;12.98;8.55;;;410.50;2355.20;;;;;;5110366;28;20447;-72
2022/09/26 02:12:32;;;;;;;12.23;7.95;;;410.50;2355.20;;;;;;5120438;27;20403;-73
2022/09/26 02:15:13;;;;;;;14.38;9.05;;;410.50;2355.20;;;;;;5119893;27;20429;-72
2022/09/26 02:17:44;;;;;;;12.98;8.75;;;410.50;2355.20;;;;;;5118166;27;20068;-72
2022/09/26 02:20:15;;;;;;;14.00;8.48;;;410.50;2355.20;;;;;;5117812;27;20384;-76
2022/09/26 02:22:41;;;;;;;13.55;8.85;;;410.50;2355.20;;;;;;5122846;27;20019;-73
2022/09/26 02:25:08;;;;;;;13.13;9.00;;;410.50;2355.20;;;;;;5115654;27;20015;-74
2022/09/26 02:27:34;;;;;;;14.88;9.00;;;410.50;2355.20;;;;;;5126417;27;20019;-76
2022/09/26 02:30:00;;;;;;;12.82;8.40;;;410.50;2355.20;;;;;;5117865;27;20019;-73
2022/09/26 02:32:31;;;;;;;13.52;9.80;;;410.50;2355.20;;;;;;5117347;27;20114;-75
2022/09/26 02:34:57;;;;;;;16.13;8.82;;;410.50;2355.20;;;;;;5115261;27;20127;-76
2022/09/26 02:37:24;;;;;;;12.98;9.05;;;410.40;2355.20;;;;;;5120562;27;20031;-72
2022/09/26 02:39:52;;;;;;;12.13;9.00;;;410.50;2355.20;;;;;;5120384;27;20469;-73
2022/09/26 02:42:42;;;;;;;13.23;8.48;;;410.40;2355.20;;;;;;5121946;27;20062;-72
2022/09/26 02:45:24;;;;;;;16.05;9.73;;;410.40;2355.20;;;;;;5112218;28;20019;-72
2022/09/26 02:47:58;;;;;;;14.25;9.68;;;410.40;2355.20;;;;;;5112457;28;20110;-76
2022/09/26 02:50:51;;;;;;;17.23;8.43;;;410.40;2355.20;;;;;;5112620;28;20035;-75
2022/09/26 02:53:34;;;;;;;13.93;9.43;;;410.40;2355.20;;;;;;5112481;28;20094;-72
2022/09/26 02:56:16;;;;;;;17.45;9.57;;;410.40;2355.20;;;;;;5100239;28;20098;-72
2022/09/26 02:59:00;;;;;;;19.02;9.38;;;410.50;2355.20;;;;;;5112579;28;20491;-77
2022/09/26 03:01:30;;;;;;;14.25;9.45;;;410.50;2355.20;;;;;;5112689;28;20104;-72
2022/09/26 03:04:05;;;;;;;13.45;10.18;;;410.50;2355.20;;;;;;5112255;28;20024;-72
2022/09/26 03:06:38;;;;;;;11.73;8.98;;;410.50;2355.20;;;;;;5112547;28;20016;-72
2022/09/26 03:09:06;;;;;;;12.95;9.00;;;410.50;2355.20;;;;;;5112050;28;20664;-73
2022/09/26 03:11:33;;;;;;;13.10;9.93;;;435.20;2355.20;;;;;;5115553;28;20084;-73
2022/09/26 03:14:00;;;;;;;11.55;8.82;;;435.20;2355.20;;;;;;5122895;28;20026;-72
2022/09/26 03:16:32;;;;;;;15.55;9.60;;;435.20;2355.20;;;;;;5112229;28;20081;-73
2022/09/26 03:19:07;;;;;;;16.58;9.50;;;435.20;2355.20;;;;;;5112524;28;20073;-75
2022/09/26 03:21:33;;;;;;;12.88;8.80;;;435.30;2355.20;;;;;;5112099;28;20132;-72
2022/09/26 03:23:59;;;;;;;17.67;9.07;;;435.20;2355.20;;;;;;5112296;28;20048;-73
2022/09/26 03:26:26;;;;;;;15.52;9.32;;;435.20;2355.20;;;;;;5112338;28;20034;-75
2022/09/26 03:28:53;;;;;;;12.75;9.20;;;435.20;2355.20;;;;;;5098187;28;20020;-75
2022/09/26 03:31:24;;;;;;;15.90;8.32;;;435.20;2355.20;;;;;;5124983;28;20122;-72
2022/09/26 03:33:50;;;;;;;15.48;9.05;;;435.30;2355.20;;;;;;5117990;28;20019;-74
2022/09/26 03:36:17;;;;;;;11.70;8.23;;;435.30;2355.20;;;;;;5121389;28;20020;-75
2022/09/26 03:38:43;;;;;;;10.73;7.50;;;435.30;2355.20;;;;;;5100655;28;20021;-72
2022/09/26 03:41:09;;;;;;;18.50;9.45;;;435.30;2355.20;;;;;;5106576;28;20544;-72
2022/09/26 03:43:36;;;;;;;12.00;8.77;;;435.30;2355.20;;;;;;5111957;28;20023;-74
2022/09/26 03:46:04;;;;;;;13.10;8.80;;;435.30;2355.20;;;;;;5115219;28;20024;-72
2022/09/26 03:48:31;;;;;;;11.68;8.70;;;435.30;2355.20;;;;;;5116126;28;20024;-73
2022/09/26 03:51:09;;;;;;;12.15;9.07;;;435.20;2355.20;;;;;;5116027;28;20027;-72
2022/09/26 03:53:38;;;;;;;12.52;9.15;;;435.30;2355.20;;;;;;5116014;28;20034;-72
2022/09/26 03:56:10;;;;;;;12.65;9.05;;;435.20;2355.20;;;;;;5115678;28;20015;-72
2022/09/26 03:58:36;;;;;;;10.75;8.30;;;435.20;2355.20;;;;;;5096756;28;20023;-74
2022/09/26 04:01:07;;;;;;;12.02;8.43;;;435.20;2355.20;;;;;;5114681;28;20019;-74
2022/09/26 04:03:38;;;;;;;13.00;9.05;;;435.20;2355.20;;;;;;5115591;28;20015;-73
2022/09/26 04:06:07;;;;;;;15.63;8.80;;;435.20;2355.20;;;;;;5115617;28;20047;-76
2022/09/26 04:08:33;;;;;;;15.90;9.80;;;435.20;2355.20;;;;;;5115299;28;20028;-75
2022/09/26 04:11:10;;;;;;;10.00;8.15;;;435.20;2355.20;;;;;;5115260;28;20497;-71
2022/09/26 04:13:36;;;;;;;13.02;8.55;;;435.20;2355.20;;;;;;5101793;28;20027;-72
2022/09/26 04:16:04;;;;;;;11.77;8.77;;;435.20;2355.20;;;;;;5115327;28;20030;-73
2022/09/26 04:18:31;;;;;;;12.27;7.50;;;435.20;2355.20;;;;;;5115480;28;20023;-75
2022/09/26 04:21:09;;;;;;;12.07;7.68;;;435.20;2355.20;;;;;;5115336;28;20377;-75
2022/09/26 04:23:37;;;;;;;11.57;9.40;;;435.20;2355.20;;;;;;5115270;28;20090;-72
2022/09/26 04:26:12;;;;;;;11.15;8.23;;;435.20;2355.20;;;;;;5115112;28;20028;-72
2022/09/26 04:28:41;;;;;;;11.45;7.93;;;435.30;2355.20;;;;;;5119427;27;20476;-73
2022/09/26 04:31:09;;;;;;;10.02;7.78;;;435.30;2355.20;;;;;;5135800;27;20089;-75
2022/09/26 04:33:38;;;;;;;9.90;7.97;;;435.30;2355.20;;;;;;5117932;27;20098;-72
2022/09/26 04:36:07;;;;;;;10.98;8.55;;;435.30;2355.20;;;;;;5115260;28;20019;-72
2022/09/26 04:38:33;;;;;;;10.35;8.07;;;435.30;2355.20;;;;;;5114722;28;20477;-73
2022/09/26 04:41:14;;;;;;;19.10;8.82;;;435.30;2355.20;;;;;;5115205;28;20111;-75
2022/09/26 04:43:40;;;;;;;10.45;8.77;;;435.30;2355.20;;;;;;5117151;27;20083;-76
2022/09/26 04:46:14;;;;;;;11.02;8.15;;;435.40;2355.20;;;;;;5126847;27;20051;-75
2022/09/26 04:48:39;;;;;;;10.93;8.90;;;435.40;2355.20;;;;;;5114760;28;20034;-72
2022/09/26 04:51:06;;;;;;;10.57;7.85;;;435.50;2355.20;;;;;;5114700;28;20115;-73
2022/09/26 04:53:33;;;;;;;13.07;7.88;;;435.50;2355.20;;;;;;5114983;28;20026;-72
2022/09/26 04:55:59;;;;;;;12.65;8.00;;;435.50;2355.20;;;;;;5119684;27;20046;-76
2022/09/26 04:58:25;;;;;;;9.18;7.20;;;435.40;2355.20;;;;;;5123326;27;20049;-72
2022/09/26 05:00:51;;;;;;;15.75;8.30;;;435.40;2355.20;;;;;;5114347;28;20047;-72
2022/09/26 05:03:17;;;;;;;11.43;7.40;;;435.40;2355.20;;;;;;5114613;28;20018;-72
2022/09/26 05:05:46;;;;;;;12.05;7.82;;;435.50;2355.20;;;;;;5114515;28;20085;-72
2022/09/26 05:08:15;;;;;;;12.95;9.15;;;435.50;2355.20;;;;;;5114212;28;20019;-73
2022/09/26 05:10:42;;;;;;;11.57;7.88;;;435.50;2355.20;;;;;;5113962;28;20067;-74
2022/09/26 05:13:09;;;;;;;11.48;8.00;;;435.50;2355.20;;;;;;5128653;27;20022;-73
2022/09/26 05:15:38;;;;;;;16.50;9.27;;;435.50;2355.20;;;;;;5114424;28;20029;-77
2022/09/26 05:18:06;;;;;;;14.35;10.90;;;435.50;2355.20;;;;;;5130044;27;20016;-74
2022/09/26 05:20:34;;;;;;;28.10;15.25;;;435.50;2355.20;;;;;;5114230;28;20051;-75
2022/09/26 05:23:01;;;;;;;41.40;20.35;;;435.60;2355.20;;;;;;5128732;27;20033;-74
2022/09/26 05:28:14;;;;;;;11.23;8.82;;;435.50;2355.20;;;;;;5114454;28;20038;-74
2022/09/26 05:30:42;;;;;;;12.48;8.32;;;435.60;2355.20;;;;;;5113904;28;20027;-73
2022/09/26 05:33:08;;;;;;;11.30;8.70;;;435.60;2355.20;;;;;;5113870;28;20102;-74
2022/09/26 05:35:34;;;;;;;15.30;8.68;;;435.60;2355.20;;;;;;5113907;28;20028;-76
2022/09/26 05:38:03;;;;;;;13.65;9.80;;;435.60;2355.20;;;;;;5125583;27;20361;-74
2022/09/26 05:43:14;;;;;;;11.20;8.75;;;435.60;2355.20;;;;;;5114045;28;20030;-74
2022/09/26 05:45:41;;;;;;;10.63;8.00;;;435.60;2355.20;;;;;;5118382;27;20023;-75
2022/09/26 05:48:08;;;;;;;10.20;8.25;;;435.60;2355.20;;;;;;5123160;27;20019;-73
2022/09/26 05:50:34;;;;;;;13.85;8.57;;;435.60;2355.20;;;;;;5113335;28;20100;-73
2022/09/26 05:53:01;;;;;;;12.43;8.50;;;435.70;2355.20;;;;;;5123030;27;20051;-73
2022/09/26 05:55:28;;;;;;;18.63;9.73;;;435.70;2355.20;;;;;;5099958;28;20362;-74
2022/09/26 05:57:57;;;;;;;11.90;8.38;;;435.80;2355.20;;;;;;5113563;28;20569;-74
2022/09/26 06:00:26;;;;;;;13.77;8.02;;;435.80;2355.20;;;;;;5113307;28;20023;-73
2022/09/26 06:02:56;;;;;;;14.65;8.65;;;435.80;2355.20;;;;;;5115932;27;20043;-73
2022/09/26 06:05:25;;;;;;;13.18;7.90;;;435.90;2355.20;;;;;;5120848;27;20030;-75
2022/09/26 06:07:52;;;;;;;11.20;7.95;;;436.10;2355.20;;;;;;5119569;27;20136;-74
2022/09/26 06:10:19;;;;;;;9.15;7.05;;;436.00;2355.20;;;;;;5113529;27;20036;-73
2022/09/26 06:12:45;;;;;;;11.48;7.75;;;436.10;2355.20;;;;;;5113079;28;20481;-72
2022/09/26 06:15:11;;;;;;;11.35;7.47;;;460.80;2380.80;;;;;;5118025;27;20106;-75
2022/09/26 06:17:37;;;;;;;8.48;7.20;;;460.90;2380.80;;;;;;5118010;27;20096;-73
2022/09/26 06:20:04;;;;;;;10.55;7.07;;;460.90;2380.80;;;;;;5120285;27;20062;-73
2022/09/26 06:22:32;;;;;;;8.75;6.97;;;461.00;2380.80;;;;;;5118321;27;20026;-75
2022/09/26 06:24:58;;;;;;;11.85;8.00;;;461.10;2380.80;;;;;;5115355;27;20016;-73
2022/09/26 06:27:24;;;;;;;13.38;8.00;;;461.20;2380.80;;;;;;5112720;28;20020;-74
2022/09/26 06:29:50;;;;;;;12.23;7.65;;;461.30;2380.80;;;;;;5112640;28;20376;-73
2022/09/26 06:32:16;;;;;;;12.20;8.32;;;461.40;2380.80;;;;;;5112947;28;20012;-73
2022/09/26 06:34:42;;;;;;;11.48;7.53;;;461.40;2380.80;;;;;;5094278;28;20080;-75
2022/09/26 06:37:08;;;;;;;13.00;7.70;;;461.40;2380.80;;;;;;5115205;27;20020;-74
2022/09/26 06:39:36;;;;;;;10.40;6.57;;;461.50;2380.80;;;;;;5117878;27;20015;-75
2022/09/26 06:42:06;;;;;;;9.77;6.80;;;461.50;2380.80;;;;;;5117812;27;20027;-76
2022/09/26 06:44:32;;;;;;;11.00;7.40;;;461.50;2380.80;;;;;;5123445;27;20061;-74
2022/09/26 06:47:01;;;;;;;9.13;6.03;;;461.60;2380.80;;;;;;5121702;27;20022;-76
2022/09/26 06:49:27;;;;;;;10.65;6.70;;;461.60;2380.80;;;;;;5120900;27;20016;-76
2022/09/26 06:51:53;;;;;;;9.98;6.43;;;461.60;2380.80;;;;;;5096782;28;20400;-75
2022/09/26 06:54:19;;;;;;;12.20;6.38;;;461.70;2380.80;;;;;;5112605;28;20011;-75
2022/09/26 06:56:44;;;;;;;7.90;6.47;;;461.60;2380.80;;;;;;5126756;27;20110;-74
2022/09/26 06:59:11;;;;;;;9.85;6.55;;;461.70;2380.80;;;;;;5112662;28;20075;-75
2022/09/26 07:01:37;;;;;;;9.07;6.40;;;461.70;2380.80;;;;;;5112346;28;20030;-75
2022/09/26 07:04:03;;;;;;;10.32;6.90;;;461.70;2380.80;;;;;;5112437;28;20114;-74
2022/09/26 07:06:30;;;;;;;11.48;6.43;;;486.40;2380.80;;;;;;5124000;28;20020;-73
2022/09/26 07:08:55;;;;;;;10.13;6.63;;;486.40;2380.80;;;;;;5114961;28;20028;-73
2022/09/26 07:11:21;;;;;;;9.38;6.40;;;486.50;2380.80;;;;;;5114087;28;20051;-74
2022/09/26 07:13:47;;;;;;;7.63;5.95;;;486.50;2380.80;;;;;;5133097;28;20019;-75
2022/09/26 07:16:13;;;;;;;11.05;6.20;;;486.60;2380.80;;;;;;5118162;28;20062;-74
2022/09/26 07:18:38;;;;;;;9.48;6.20;;;486.60;2380.80;;;;;;5119521;27;20028;-74
2022/09/26 07:21:06;;;;;;;8.68;5.03;;;486.70;2380.80;;;;;;5104787;28;20042;-75
2022/09/26 07:23:32;;;;;;;9.52;5.20;;;486.70;2380.80;;;;;;5105775;27;20469;-74
2022/09/26 07:25:58;;;;;;;7.45;5.28;;;486.70;2380.80;;;;;;5124147;27;20072;-74
2022/09/26 07:28:25;;;;;;;6.57;5.13;;;486.70;2380.80;;;;;;5116092;28;20107;-75
2022/09/26 07:30:55;;;;;;;6.80;5.15;;;486.70;2380.80;;;;;;5116417;28;20035;-75
2022/09/26 07:33:21;;;;;;;7.28;5.15;;;486.70;2380.80;;;;;;5146109;27;20051;-74
2022/09/26 07:35:48;;;;;;;8.65;4.68;;;486.60;2380.80;;;;;;5116690;28;20016;-74
2022/09/26 07:38:14;;;;;;;8.63;5.00;;;486.70;2380.80;;;;;;5115857;28;20419;-74
2022/09/26 07:40:42;;;;;;;9.85;5.00;;;486.70;2380.80;;;;;;5123599;27;20027;-74
2022/09/26 07:43:09;;;;;;;12.07;5.18;;;486.70;2380.80;;;;;;5122631;27;20023;-74
2022/09/26 07:51:10;;;;;;;8.82;5.70;;;486.70;2380.80;;;;;;5062658;28;20040;-73
2022/09/26 07:53:37;;;;;;;9.45;6.07;;;486.70;2380.80;;;;;;5041955;28;20406;-72
2022/09/26 07:56:07;;;;;;;15.48;7.00;;;486.80;2380.80;;;;;;5063939;28;20057;-73
2022/09/26 07:58:37;;;;;;;7.90;5.65;;;486.90;2380.80;;;;;;5072781;28;20020;-73
2022/09/26 08:01:04;;;;;;;7.93;5.53;;;487.00;2380.80;;;;;;5059689;28;20048;-74
2022/09/26 08:03:30;;;;;;;10.32;5.28;;;487.10;2380.80;;;;;;5058585;28;20032;-74
2022/09/26 08:05:59;;;;;;;12.43;5.53;;;487.10;2380.80;;;;;;5060767;28;20033;-71
2022/09/26 08:08:25;;;;;;;10.57;5.55;;;487.20;2380.80;;;;;;5056996;28;20072;-74
2022/09/26 08:10:51;;;;;;;7.32;5.07;;;512.00;2380.80;;;;;;5062148;28;20565;-72
2022/09/26 08:13:16;;;;;;;6.85;5.15;;;487.30;2380.80;;;;;;5066873;28;20057;-75
2022/09/26 08:15:42;;;;;;;10.00;5.63;;;512.00;2380.80;;;;;;5052387;28;20048;-72
2022/09/26 08:18:08;;;;;;;6.38;4.82;;;512.10;2380.80;;;;;;5059898;28;20128;-72
2022/09/26 08:20:34;;;;;;;6.65;4.88;;;512.20;2380.80;;;;;;5059542;28;20029;-77
2022/09/26 08:23:00;;;;;;;8.52;4.57;;;512.50;2380.80;;;;;;5052736;28;20498;-79
2022/09/26 08:25:26;;;;;;;12.05;5.30;;;512.60;2380.80;;;;;;5054337;28;20067;-76
2022/09/26 08:27:52;;;;;;;11.40;6.07;;;512.80;2380.80;;;;;;5087697;27;20040;-73
2022/09/26 08:30:18;;;;;;;6.30;4.78;;;512.90;2380.80;;;;;;5124802;27;20024;-74
2022/09/26 08:32:58;;;;;;;7.90;5.30;;;512.90;2380.80;;;;;;5115077;28;20027;-74
2022/09/26 08:35:24;;;;;;;7.13;5.15;;;537.70;2406.40;;;;;;5115214;28;20027;-73
2022/09/26 08:37:50;;;;;;;5.15;3.92;;;537.80;2406.40;;;;;;5115147;28;20100;-73
2022/09/26 08:40:15;;;;;;;6.43;4.07;;;537.80;2406.40;;;;;;5114965;28;20472;-74
2022/09/26 08:42:44;;;;;;;5.85;4.50;;;537.80;2406.40;;;;;;5114794;28;20384;-73
2022/09/26 08:48:41;;;;;;;8.73;3.97;;;537.80;2406.40;;;;;;5115392;28;20449;-74
2022/09/26 08:51:25;;;;;;;8.45;5.00;;;537.90;2406.40;;;;;;5125603;27;20119;-73
2022/09/26 08:54:09;;;;;;;6.35;4.80;;;538.00;2406.40;;;;;;5123103;27;20072;-76
2022/09/26 08:56:39;;;;;;;6.82;3.80;;;538.00;2406.40;;;;;;5121403;27;20069;-77
2022/09/26 08:59:11;;;;;;;5.88;3.88;;;538.00;2406.40;;;;;;5128907;27;20027;-76
2022/09/26 09:01:39;;;;;;;9.20;3.90;;;;;;;;;;5100565;27;20011;-78
2022/09/26 09:04:12;;;;;;;7.53;4.78;;;538.00;2406.40;;;;;;5124687;27;20095;-76
2022/09/26 09:06:38;;;;;;;24.90;19.67;;;538.10;2406.40;;;;;;5118270;27;20015;-72
2022/09/26 09:09:04;;;;;;;10.13;5.80;;;538.30;2406.40;;;;;;5124976;27;20508;-73
2022/09/26 09:11:57;;;;;;;8.88;5.47;;;538.40;2406.40;;;;;;5117242;27;20047;-73
2022/09/26 09:14:50;;;;;;;6.50;3.63;;;538.50;2406.40;;;;;;5118693;27;20031;-77
2022/09/26 09:17:36;;;;;;;7.68;4.00;;;538.40;2406.40;;;;;;5125003;27;20041;-75
2022/09/26 09:20:12;;;;;;;7.45;4.07;;;538.40;2406.40;;;;;;5099208;28;20062;-75
2022/09/26 09:23:08;;;;;;;6.03;3.80;;;563.20;2432.00;;;;;;5101786;28;20104;-77
2022/09/26 09:25:51;;;;;;;6.80;3.38;;;563.30;2432.00;;;;;;5091925;28;20038;-75
2022/09/26 09:28:31;;;;;;;7.10;4.07;;;563.30;2432.00;;;;;;5091344;28;20032;-78
2022/09/26 09:31:08;;;;;;;5.55;3.45;;;563.40;2432.00;;;;;;5091406;28;20459;-75
2022/09/26 09:33:48;;;;;;;7.25;4.05;;;563.40;2432.00;;;;;;5091695;28;20051;-75
2022/09/26 09:36:21;;;;;;;6.90;3.42;;;563.30;2432.00;;;;;;5091507;28;20070;-77
2022/09/26 09:38:49;;;;;;;6.50;3.90;;;563.30;2432.00;;;;;;5091210;28;20143;-77
2022/09/26 09:41:17;;;;;;;6.15;3.85;;;563.30;2432.00;;;;;;5091459;28;20085;-79
2022/09/26 09:43:47;;;;;;;6.35;3.90;;;563.50;2432.00;;;;;;5092582;28;20028;-79
2022/09/26 09:46:34;;;;;;;9.68;4.93;;;563.60;2432.00;;;;;;5096361;28;20191;-76
2022/09/26 09:49:09;;;;;;;6.97;4.32;;;563.80;2432.00;;;;;;5096443;28;20020;-78
2022/09/26 09:52:01;;;;;;;13.10;4.95;;;564.00;2432.00;;;;;;5090565;28;20051;-75
2022/09/26 09:54:27;;;;;;;6.25;4.68;;;564.00;2432.00;;;;;;5090688;28;20044;-76
2022/09/26 09:57:03;;;;;;;7.07;4.13;;;564.10;2432.00;;;;;;5099820;28;20031;-75
2022/09/26 10:00:00;;;;;;;10.73;4.60;;;564.10;2432.00;;;;;;5113374;28;20023;-76
2022/09/26 10:02:45;;;;;;;8.48;4.60;;;564.10;2432.00;;;;;;5113452;28;20077;-76
2022/09/26 10:05:22;;;;;;;6.00;4.45;;;564.10;2432.00;;;;;;5095099;27;20038;-76
2022/09/26 10:07:51;;;;;;;7.95;4.93;;;563.90;2432.00;;;;;;5123920;27;20027;-76
2022/09/26 10:10:27;;;;;;;6.63;4.15;;;564.00;2432.00;;;;;;5114856;27;20374;-75
2022/09/26 10:12:55;;;;;;;6.18;3.63;;;563.90;2432.00;;;;;;5128472;27;20023;-74
2022/09/26 10:15:26;;;;;;;7.13;4.60;;;563.90;2432.00;;;;;;5121219;27;20026;-78
2022/09/26 10:18:15;;;;;;;8.30;4.82;;;563.90;2432.00;;;;;;5123323;27;20069;-74
2022/09/26 10:20:51;;;;;;;6.60;5.05;;;564.00;2432.00;;;;;;5115745;28;20030;-73
2022/09/26 10:23:34;;;;;;;7.07;4.97;;;564.10;2432.00;;;;;;5113224;28;20022;-73
2022/09/26 10:26:04;;;;;;;7.38;5.18;;;564.10;2432.00;;;;;;5113300;28;20039;-73
2022/09/26 10:28:34;;;;;;;10.43;5.60;;;589.00;2432.00;;;;;;5116174;27;20007;-75
2022/09/26 10:31:07;;;;;;;9.05;4.82;;;589.30;2432.00;;;;;;5123258;27;20513;-73
2022/09/26 10:33:35;;;;;;;6.03;4.72;;;589.50;2432.00;;;;;;5113064;28;20035;-77
2022/09/26 10:36:28;;;;;;;10.27;5.50;;;589.70;2432.00;;;;;;5112827;28;20038;-74
2022/09/26 10:41:54;;;;;;;8.73;5.05;;;614.60;2432.00;;;;;;5123794;27;20048;-73
2022/09/26 10:44:41;;;;;;;6.63;4.07;;;614.60;2432.00;;;;;;5113000;28;20026;-74
2022/09/26 10:47:15;;;;;;;7.22;4.85;;;614.80;2432.00;;;;;;5111446;28;20023;-76
2022/09/26 10:49:50;;;;;;;7.38;4.10;;;615.00;2432.00;;;;;;5102209;27;20030;-74
2022/09/26 10:52:41;;;;;;;6.00;4.20;;;614.90;2432.00;;;;;;5123234;27;20019;-79
2022/09/26 10:55:24;;;;;;;7.30;4.28;;;614.70;2432.00;;;;;;5110332;28;20027;-77
2022/09/26 10:57:53;;;;;;;4.80;4.18;;;614.50;2432.00;;;;;;5127578;27;20389;-76
2022/09/26 11:00:40;;;;;;;5.63;4.35;;;614.60;2432.00;;;;;;5112678;28;20480;-77
2022/09/26 11:03:14;;;;;;;5.32;4.25;;;614.80;2432.00;;;;;;5099870;28;20024;-76
2022/09/26 11:05:55;;;;;;;8.32;4.55;;;614.80;2432.00;;;;;;5128130;27;20030;-77
2022/09/26 11:08:23;;;;;;;8.32;4.75;;;614.90;2432.00;;;;;;5112521;28;20020;-74
2022/09/26 11:10:51;;;;;;;7.75;4.78;;;615.10;2432.00;;;;;;5111959;28;20052;-75
2022/09/26 11:13:25;;;;;;;7.93;4.95;;;614.90;2432.00;;;;;;5126566;28;20041;-74
2022/09/26 11:16:08;;;;;;;6.25;4.30;;;614.90;2432.00;;;;;;5105474;28;20063;-75
2022/09/26 11:19:10;;;;;;;8.63;5.00;;;614.90;2432.00;;;;;;5112954;28;20023;-77
2022/09/26 11:21:50;;;;;;;9.27;4.55;;;614.90;2432.00;;;;;;5112255;28;20019;-75
2022/09/26 11:24:35;;;;;;;7.00;4.85;;;614.80;2432.00;;;;;;5094074;28;20059;-77
2022/09/26 11:27:13;;;;;;;6.90;5.15;;;614.60;2432.00;;;;;;5112337;28;20015;-77
2022/09/26 11:29:52;;;;;;;9.50;5.10;;;614.40;2432.00;;;;;;5125197;28;20022;-76
2022/09/26 11:32:23;;;;;;;5.72;4.40;;;614.40;2432.00;;;;;;5112265;28;20047;-74
2022/09/26 11:34:51;;;;;;;7.25;5.30;;;614.40;2432.00;;;;;;5112213;28;20049;-76
2022/09/26 11:37:29;;;;;;;7.50;4.93;;;614.40;2432.00;;;;;;5108074;28;20411;-76
2022/09/26 11:40:01;;;;;;;12.15;4.78;;;614.40;2432.00;;;;;;5112389;28;20056;-77
2022/09/26 11:42:30;;;;;;;16.23;6.32;;;614.40;2432.00;;;;;;5112052;28;20020;-77
2022/09/26 11:45:07;;;;;;;10.73;5.22;;;589.70;2432.00;;;;;;5112016;28;20050;-77
2022/09/26 11:47:42;;;;;;;8.07;5.20;;;589.70;2432.00;;;;;;5112306;28;20114;-78
2022/09/26 11:50:34;;;;;;;6.72;5.10;;;589.70;2432.00;;;;;;5112025;28;20032;-77
2022/09/26 11:53:36;;;;;;;10.43;5.20;;;589.70;2432.00;;;;;;5103258;28;20030;-76
2022/09/26 11:56:49;;;;;;;7.88;4.88;;;589.70;2432.00;;;;;;5120791;28;20426;-76
2022/09/26 11:59:35;;;;;;;8.45;4.80;;;589.70;2432.00;;;;;;5088476;28;20031;-76
2022/09/26 12:02:01;;;;;;;9.43;5.32;;;589.70;2432.00;;;;;;5118260;28;20012;-76
2022/09/26 12:04:53;;;;;;;8.93;4.75;;;589.70;2432.00;;;;;;5097835;27;20367;-74
2022/09/26 12:07:42;;;;;;;12.52;4.97;;;589.70;2432.00;;;;;;5100503;27;20026;-79
2022/09/26 12:10:24;;;;;;;7.80;5.15;;;589.70;2432.00;;;;;;5115963;27;20473;-73
2022/09/26 12:13:18;;;;;;;10.95;5.07;;;589.60;2432.00;;;;;;5121302;27;20023;-75
2022/09/26 12:15:44;;;;;;;8.23;5.63;;;589.60;2432.00;;;;;;5128082;27;20019;-78
2022/09/26 12:18:28;;;;;;;7.50;4.88;;;589.60;2432.00;;;;;;5118667;27;20060;-74
2022/09/26 12:21:06;;;;;;;12.68;5.72;;;589.60;2432.00;;;;;;5126119;27;20011;-74
2022/09/26 12:24:05;;;;;;;9.88;5.60;;;589.50;2432.00;;;;;;5115064;27;20119;-77
2022/09/26 12:26:56;;;;;;;7.32;5.20;;;589.70;2432.00;;;;;;5109808;28;20404;-74
2022/09/26 12:29:54;;;;;;;9.30;5.82;;;614.40;2432.00;;;;;;5100629;28;20024;-79
2022/09/26 12:32:50;;;;;;;13.65;4.85;;;614.40;2432.00;;;;;;5100476;28;20493;-77
2022/09/26 12:35:30;;;;;;;7.55;5.18;;;589.70;2432.00;;;;;;5103377;28;20056;-75
2022/09/26 12:38:10;;;;;;;11.10;5.18;;;589.70;2432.00;;;;;;5098462;28;20068;-74
2022/09/26 12:40:52;;;;;;;8.48;5.72;;;614.40;2432.00;;;;;;5099630;28;20043;-75
2022/09/26 12:43:49;;;;;;;8.45;5.18;;;614.60;2432.00;;;;;;5107116;28;20031;-76
2022/09/26 12:46:52;;;;;;;10.95;4.53;;;614.70;2432.00;;;;;;5081811;28;20056;-77
2022/09/26 12:49:47;;;;;;;12.93;5.75;;;614.80;2432.00;;;;;;5100307;28;20028;-77
2022/09/26 12:52:15;;;;;;;8.32;5.75;;;614.80;2432.00;;;;;;5061554;28;20040;-77
2022/09/26 12:54:42;;;;;;;7.47;5.40;;;614.70;2432.00;;;;;;5060335;28;20029;-77
2022/09/26 12:57:23;;;;;;;10.05;5.60;;;614.60;2432.00;;;;;;5065755;28;20047;-77